createdAt,value
2023-08-22T00:00:32.568Z,101103.84
2023-08-22T00:03:19.796Z,101099.98
2023-08-22T00:05:46.729Z,101097.41
2023-08-22T00:08:13.572Z,101095.77
2023-08-22T00:10:41.028Z,101095.55
2023-08-22T00:13:07.871Z,101094.43
2023-08-22T00:15:34.958Z,101093.27
2023-08-22T00:18:02.192Z,101089.80
2023-08-22T00:20:29.222Z,101087.33
2023-08-22T00:22:56.150Z,101085.52
2023-08-22T00:25:22.998Z,101092.09
2023-08-22T00:27:49.840Z,101094.92
2023-08-22T00:30:16.679Z,101098.09
2023-08-22T00:32:43.677Z,101098.46
2023-08-22T00:35:12.522Z,101101.90
2023-08-22T00:37:39.661Z,101101.30
2023-08-22T00:40:07.936Z,101098.56
2023-08-22T00:42:34.783Z,101096.55
2023-08-22T00:45:02.846Z,101093.19
2023-08-22T00:47:30.236Z,101087.01
2023-08-22T00:49:57.244Z,101084.77
2023-08-22T00:52:24.087Z,101085.89
2023-08-22T00:54:51.749Z,101084.54
2023-08-22T00:57:18.791Z,101078.88
2023-08-22T00:59:45.736Z,101082.04
2023-08-22T01:02:15.367Z,101083.73
2023-08-22T01:04:44.026Z,101083.20
2023-08-22T01:07:27.456Z,101076.58
2023-08-22T01:10:00.038Z,101078.77
2023-08-22T01:12:33.020Z,101077.05
2023-08-22T01:15:11.228Z,101072.19
2023-08-22T01:17:39.594Z,101071.78
2023-08-22T01:20:12.487Z,101070.09
2023-08-22T01:22:42.515Z,101068.12
2023-08-22T01:25:09.672Z,101066.41
2023-08-22T01:27:59.333Z,101067.89
2023-08-22T01:30:34.195Z,101065.41
2023-08-22T01:33:07.642Z,101069.06
2023-08-22T01:35:35.624Z,101065.13
2023-08-22T01:38:03.529Z,101062.73
2023-08-22T01:40:31.040Z,101066.02
2023-08-22T01:43:00.341Z,101069.63
2023-08-22T01:45:27.592Z,101068.67
2023-08-22T01:47:54.627Z,101063.63
2023-08-22T01:50:21.681Z,101065.34
2023-08-22T01:52:48.933Z,101063.55
2023-08-22T01:55:16.395Z,101063.98
2023-08-22T01:57:45.791Z,101061.22
2023-08-22T02:00:13.350Z,101058.41
2023-08-22T02:02:40.270Z,101056.89
2023-08-22T02:05:08.206Z,101053.95
2023-08-22T02:07:36.363Z,101056.11
2023-08-22T02:10:06.862Z,101057.98
2023-08-22T02:12:33.799Z,101055.23
2023-08-22T02:15:01.081Z,101053.95
2023-08-22T02:17:28.210Z,101051.55
2023-08-22T02:19:57.761Z,101054.46
2023-08-22T02:22:24.652Z,101046.39
2023-08-22T02:24:51.491Z,101039.79
2023-08-22T02:27:18.435Z,101037.54
2023-08-22T02:29:45.274Z,101038.56
2023-08-22T02:32:12.115Z,101035.40
2023-08-22T02:34:41.216Z,101038.67
2023-08-22T02:37:08.255Z,101034.16
2023-08-22T02:39:35.103Z,101031.79
2023-08-22T02:42:02.755Z,101035.64
2023-08-22T02:44:29.710Z,101032.45
2023-08-22T02:46:56.645Z,101030.90
2023-08-22T02:49:23.486Z,101034.39
2023-08-22T02:51:50.322Z,101032.40
2023-08-22T02:54:17.274Z,101031.98
2023-08-22T02:56:44.212Z,101033.83
2023-08-22T02:59:11.264Z,101033.39
2023-08-22T03:01:38.097Z,101032.55
2023-08-22T03:04:05.449Z,101039.19
2023-08-22T03:06:32.292Z,101036.20
2023-08-22T03:09:00.575Z,101038.98
2023-08-22T03:11:28.737Z,101036.17
2023-08-22T03:13:56.096Z,101034.15
2023-08-22T03:16:23.672Z,101032.52
2023-08-22T03:18:50.697Z,101030.05
2023-08-22T03:21:17.640Z,101023.01
2023-08-22T03:23:45.404Z,101017.23
2023-08-22T03:26:14.765Z,101017.67
2023-08-22T03:28:42.279Z,101022.61
2023-08-22T03:31:09.527Z,101027.45
2023-08-22T03:33:36.478Z,101027.11
2023-08-22T03:36:06.692Z,101026.59
2023-08-22T03:38:35.159Z,101024.79
2023-08-22T03:41:03.536Z,101017.19
2023-08-22T03:43:30.681Z,101010.41
2023-08-22T03:45:58.001Z,101008.20
2023-08-22T03:48:25.256Z,101005.07
2023-08-22T03:50:53.053Z,101009.87
2023-08-22T03:53:20.004Z,101012.06
2023-08-22T03:55:47.042Z,101013.16
2023-08-22T03:58:13.985Z,101010.69
2023-08-22T04:00:41.048Z,101005.04
2023-08-22T04:03:07.998Z,101007.46
2023-08-22T04:05:35.125Z,101007.16
2023-08-22T04:08:02.688Z,101008.13
2023-08-22T04:10:29.621Z,101007.13
2023-08-22T04:12:56.564Z,101005.27
2023-08-22T04:15:23.558Z,101002.38
2023-08-22T04:17:51.485Z,101000.95
2023-08-22T04:20:18.828Z,101004.16
2023-08-22T04:22:45.673Z,101006.94
2023-08-22T04:25:14.163Z,101016.21
2023-08-22T04:27:43.179Z,101018.13
2023-08-22T04:30:12.278Z,101020.29
2023-08-22T04:32:39.445Z,101021.28
2023-08-22T04:35:08.172Z,101018.98
2023-08-22T04:37:38.325Z,101018.40
2023-08-22T04:40:06.166Z,101019.56
2023-08-22T04:42:51.734Z,101020.94
2023-08-22T04:45:19.083Z,101016.68
2023-08-22T04:47:46.582Z,101012.12
2023-08-22T04:50:14.101Z,101013.18
2023-08-22T04:52:41.044Z,101018.21
2023-08-22T04:55:08.605Z,101024.54
2023-08-22T04:57:35.454Z,101022.61
2023-08-22T05:00:04.642Z,101023.77
2023-08-22T05:02:31.641Z,101025.27
2023-08-22T05:04:58.841Z,101022.92
2023-08-22T05:07:26.191Z,101018.73
2023-08-22T05:09:53.439Z,101014.20
2023-08-22T05:12:21.687Z,101015.34
2023-08-22T05:14:48.633Z,101010.63
2023-08-22T05:17:15.580Z,101009.62
2023-08-22T05:19:43.062Z,101016.13
2023-08-22T05:22:10.206Z,101013.46
2023-08-22T05:24:39.410Z,101006.29
2023-08-22T05:27:06.690Z,101004.23
2023-08-22T05:29:34.558Z,101003.16
2023-08-22T05:32:02.040Z,100999.46
2023-08-22T05:34:29.225Z,101002.07
2023-08-22T05:36:56.168Z,101007.15
2023-08-22T05:39:23.630Z,101007.98
2023-08-22T05:41:50.467Z,101012.43
2023-08-22T05:44:18.234Z,101013.10
2023-08-22T05:46:45.580Z,101008.36
2023-08-22T05:49:13.137Z,101009.42
2023-08-22T05:51:40.522Z,101011.82
2023-08-22T05:54:07.437Z,101013.96
2023-08-22T05:56:34.893Z,101014.25
2023-08-22T05:59:01.841Z,101009.35
2023-08-22T06:01:28.913Z,101008.86
2023-08-22T06:03:56.044Z,101002.46
2023-08-22T06:06:22.976Z,100998.98
2023-08-22T06:08:50.324Z,100998.38
2023-08-22T06:11:17.780Z,101001.53
2023-08-22T06:13:44.597Z,100993.49
2023-08-22T06:16:11.714Z,100988.85
2023-08-22T06:18:38.515Z,100983.71
2023-08-22T06:21:05.354Z,100979.02
2023-08-22T06:23:32.281Z,100981.16
2023-08-22T06:25:59.238Z,100977.77
2023-08-22T06:28:26.078Z,100972.24
2023-08-22T06:30:54.769Z,100970.92
2023-08-22T06:33:21.810Z,100973.95
2023-08-22T06:35:48.855Z,100974.47
2023-08-22T06:38:15.703Z,100971.79
2023-08-22T06:40:43.259Z,100972.52
2023-08-22T06:43:10.099Z,100976.52
2023-08-22T06:45:38.110Z,100976.46
2023-08-22T06:48:05.914Z,100977.83
2023-08-22T06:50:32.974Z,100980.56
2023-08-22T06:53:00.746Z,100974.79
2023-08-22T06:55:27.590Z,100975.37
2023-08-22T06:57:54.421Z,100980.48
2023-08-22T07:00:22.287Z,100978.24
2023-08-22T07:02:49.400Z,100967.88
2023-08-22T07:05:18.339Z,100961.52
2023-08-22T07:07:45.457Z,100959.08
2023-08-22T07:10:13.823Z,100957.71
2023-08-22T07:12:42.475Z,100956.04
2023-08-22T07:15:09.789Z,100957.99
2023-08-22T07:17:36.705Z,100956.57
2023-08-22T07:20:04.695Z,100955.33
2023-08-22T07:22:33.071Z,100951.86
2023-08-22T07:25:00.018Z,100945.84
2023-08-22T07:27:26.962Z,100945.30
2023-08-22T07:29:54.005Z,100944.30
2023-08-22T07:32:21.568Z,100940.73
2023-08-22T07:34:48.607Z,100937.23
2023-08-22T07:37:16.576Z,100938.65
2023-08-22T07:39:43.728Z,100935.77
2023-08-22T07:42:10.565Z,100932.30
2023-08-22T07:44:37.409Z,100936.67
2023-08-22T07:47:04.456Z,100932.23
2023-08-22T07:49:31.316Z,100939.13
2023-08-22T07:51:59.166Z,100937.04
2023-08-22T07:54:26.116Z,100934.23
2023-08-22T07:57:01.710Z,100936.16
2023-08-22T07:59:35.452Z,100939.27
2023-08-22T08:02:02.353Z,100938.34
2023-08-22T08:04:31.389Z,100937.91
2023-08-22T08:06:58.232Z,100930.44
2023-08-22T08:09:35.036Z,100926.75
2023-08-22T08:12:04.454Z,100931.31
2023-08-22T08:14:31.757Z,100929.40
2023-08-22T08:16:58.704Z,100933.19
2023-08-22T08:19:27.431Z,100931.31
2023-08-22T08:21:54.856Z,100927.14
2023-08-22T08:24:22.089Z,100924.10
2023-08-22T08:26:49.158Z,100923.34
2023-08-22T08:29:18.542Z,100921.34
2023-08-22T08:31:45.588Z,100917.96
2023-08-22T08:34:12.448Z,100917.65
2023-08-22T08:36:39.266Z,100919.52
2023-08-22T08:39:06.518Z,100913.58
2023-08-22T08:41:34.397Z,100914.20
2023-08-22T08:44:02.045Z,100911.30
2023-08-22T08:46:30.813Z,100911.05
2023-08-22T08:48:58.288Z,100908.55
2023-08-22T08:51:25.331Z,100906.34
2023-08-22T08:53:53.097Z,100906.61
2023-08-22T08:56:20.621Z,100901.59
2023-08-22T08:58:49.237Z,100906.98
2023-08-22T09:01:16.608Z,100909.89
2023-08-22T09:03:45.476Z,100907.64
2023-08-22T09:06:12.320Z,100908.63
2023-08-22T09:08:39.977Z,100911.70
2023-08-22T09:11:07.332Z,100912.39
2023-08-22T09:13:54.028Z,100914.61
2023-08-22T09:16:27.297Z,100911.54
2023-08-22T09:19:01.161Z,100907.48
2023-08-22T09:21:28.908Z,100904.48
2023-08-22T09:24:09.387Z,100898.66
2023-08-22T09:26:37.436Z,100900.06
2023-08-22T09:29:07.971Z,100893.55
2023-08-22T09:31:36.192Z,100890.31
2023-08-22T09:34:09.118Z,100888.47
2023-08-22T09:36:44.811Z,100882.16
2023-08-22T09:39:21.331Z,100873.96
2023-08-22T09:41:53.793Z,100872.52
2023-08-22T09:44:25.645Z,100868.04
2023-08-22T09:46:54.246Z,100870.36
2023-08-22T09:49:22.215Z,100864.02
2023-08-22T09:51:51.827Z,100858.83
2023-08-22T09:54:18.769Z,100856.94
2023-08-22T09:56:46.532Z,100857.55
2023-08-22T09:59:16.847Z,100853.45
2023-08-22T10:01:44.070Z,100853.66
2023-08-22T10:04:13.235Z,100846.19
2023-08-22T10:09:13.427Z,100837.51
2023-08-22T10:11:49.078Z,100827.40
2023-08-22T10:14:46.231Z,100822.73
2023-08-22T10:17:13.991Z,100825.10
2023-08-22T10:19:44.227Z,100821.91
2023-08-22T10:22:13.057Z,100819.98
2023-08-22T10:24:43.762Z,100815.05
2023-08-22T10:27:16.271Z,100815.56
2023-08-22T10:29:48.060Z,100811.38
2023-08-22T10:32:14.932Z,100806.66
2023-08-22T10:34:41.844Z,100805.49
2023-08-22T10:37:22.917Z,100803.52
2023-08-22T10:39:50.087Z,100802.05
2023-08-22T10:42:18.139Z,100796.14
2023-08-22T10:44:52.362Z,100795.15
2023-08-22T10:47:20.907Z,100794.64
2023-08-22T10:50:15.910Z,100788.55
2023-08-22T10:52:44.385Z,100783.38
2023-08-22T10:55:14.750Z,100781.97
2023-08-22T10:57:46.917Z,100780.44
2023-08-22T11:00:20.203Z,100778.27
2023-08-22T11:02:57.933Z,100774.52
2023-08-22T11:05:27.443Z,100773.52
2023-08-22T11:07:54.240Z,100774.91
2023-08-22T11:10:25.221Z,100774.80
2023-08-22T11:12:55.206Z,100768.12
2023-08-22T11:15:22.553Z,100766.02
2023-08-22T11:17:51.407Z,100767.95
2023-08-22T11:20:23.789Z,100762.66
2023-08-22T11:22:50.893Z,100764.66
2023-08-22T11:25:25.881Z,100764.42
2023-08-22T11:27:53.444Z,100761.84
2023-08-22T11:30:20.912Z,100759.29
2023-08-22T11:32:48.295Z,100754.02
2023-08-22T11:35:16.628Z,100749.91
2023-08-22T11:37:44.436Z,100754.18
2023-08-22T11:40:16.629Z,100756.43
2023-08-22T11:42:46.981Z,100755.89
2023-08-22T11:45:17.769Z,100756.20
2023-08-22T11:47:49.626Z,100745.59
2023-08-22T11:50:24.318Z,100745.48
2023-08-22T11:53:19.054Z,100739.73
2023-08-22T11:55:49.846Z,100743.00
2023-08-22T11:58:17.492Z,100741.89
2023-08-22T12:00:44.962Z,100742.40
2023-08-22T12:03:12.101Z,100739.31
2023-08-22T12:05:41.901Z,100742.23
2023-08-22T12:08:11.611Z,100740.09
2023-08-22T12:10:42.449Z,100736.45
2023-08-22T12:13:10.327Z,100740.95
2023-08-22T12:15:37.908Z,100736.94
2023-08-22T12:18:05.476Z,100729.84
2023-08-22T12:20:33.098Z,100725.70
2023-08-22T12:23:01.675Z,100724.81
2023-08-22T12:25:28.512Z,100720.19
2023-08-22T12:27:55.561Z,100713.27
2023-08-22T12:30:22.618Z,100703.98
2023-08-22T12:32:49.778Z,100696.14
2023-08-22T12:35:16.801Z,100694.05
2023-08-22T12:37:44.140Z,100692.46
2023-08-22T12:40:11.650Z,100693.38
2023-08-22T12:42:47.916Z,100690.16
2023-08-22T12:45:14.711Z,100684.88
2023-08-22T12:47:43.334Z,100678.98
2023-08-22T12:50:11.264Z,100675.88
2023-08-22T12:52:38.519Z,100671.08
2023-08-22T12:55:09.151Z,100674.46
2023-08-22T12:57:37.437Z,100668.09
2023-08-22T13:00:05.195Z,100674.69
2023-08-22T13:02:32.319Z,100661.94
2023-08-22T13:04:59.788Z,100663.13
2023-08-22T13:07:26.831Z,100661.48
2023-08-22T13:09:53.773Z,100656.05
2023-08-22T13:12:20.622Z,100649.64
2023-08-22T13:14:47.457Z,100649.89
2023-08-22T13:17:14.404Z,100645.48
2023-08-22T13:19:41.544Z,100637.35
2023-08-22T13:22:08.409Z,100636.02
2023-08-22T13:24:35.352Z,100636.69
2023-08-22T13:27:02.283Z,100635.45
2023-08-22T13:29:29.127Z,100634.02
2023-08-22T13:31:56.104Z,100635.32
2023-08-22T13:34:23.218Z,100638.51
2023-08-22T13:36:50.482Z,100637.67
2023-08-22T13:39:18.389Z,100630.41
2023-08-22T13:41:47.423Z,100625.52
2023-08-22T13:44:14.425Z,100622.78
2023-08-22T13:46:42.652Z,100618.69
2023-08-22T13:49:09.486Z,100618.10
2023-08-22T13:51:36.329Z,100617.96
2023-08-22T13:54:04.212Z,100613.74
2023-08-22T13:56:31.876Z,100620.08
2023-08-22T13:58:59.210Z,100614.92
2023-08-22T14:01:27.369Z,100607.36
2023-08-22T14:03:54.421Z,100607.47
2023-08-22T14:06:21.481Z,100612.63
2023-08-22T14:08:48.933Z,100611.02
2023-08-22T14:11:15.963Z,100614.10
2023-08-22T14:13:43.547Z,100619.48
2023-08-22T14:16:10.869Z,100619.95
2023-08-22T14:18:38.677Z,100615.45
2023-08-22T14:21:06.212Z,100615.52
2023-08-22T14:23:33.045Z,100615.58
2023-08-22T14:25:59.992Z,100611.52
2023-08-22T14:28:27.044Z,100597.89
2023-08-22T14:31:01.630Z,100591.71
2023-08-22T14:33:28.785Z,100586.65
2023-08-22T14:35:56.766Z,100585.87
2023-08-22T14:38:24.235Z,100576.71
2023-08-22T14:40:55.694Z,100575.34
2023-08-22T14:43:23.445Z,100571.73
2023-08-22T14:45:51.436Z,100567.61
2023-08-22T14:48:18.708Z,100573.11
2023-08-22T14:50:46.018Z,100572.23
2023-08-22T14:53:14.303Z,100572.27
2023-08-22T14:55:55.867Z,100573.43
2023-08-22T14:58:23.019Z,100583.16
2023-08-22T15:00:50.235Z,100586.75
2023-08-22T15:03:17.162Z,100581.34
2023-08-22T15:05:44.256Z,100575.70
2023-08-22T15:08:11.134Z,100570.70
2023-08-22T15:10:38.246Z,100567.88
2023-08-22T15:13:05.204Z,100568.27
2023-08-22T15:15:32.303Z,100566.21
2023-08-22T15:18:01.672Z,100564.83
2023-08-22T15:20:28.729Z,100567.91
2023-08-22T15:22:55.527Z,100564.98
2023-08-22T15:25:23.493Z,100566.27
2023-08-22T15:27:50.349Z,100572.25
2023-08-22T15:30:17.285Z,100574.03
2023-08-22T15:32:44.529Z,100581.63
2023-08-22T15:35:11.484Z,100583.56
2023-08-22T15:37:38.313Z,100582.21
2023-08-22T15:40:06.181Z,100581.55
2023-08-22T15:42:33.845Z,100586.47
2023-08-22T15:45:01.199Z,100577.98
2023-08-22T15:47:29.743Z,100576.24
2023-08-22T15:49:57.641Z,100574.80
2023-08-22T15:52:35.326Z,100566.84
2023-08-22T15:55:08.637Z,100574.66
2023-08-22T15:57:35.474Z,100575.66
2023-08-22T16:00:03.155Z,100576.12
2023-08-22T16:02:33.261Z,100577.29
2023-08-22T16:05:00.606Z,100569.11
2023-08-22T16:07:27.753Z,100573.79
2023-08-22T16:09:54.699Z,100570.20
2023-08-22T16:12:21.540Z,100571.36
2023-08-22T16:14:48.375Z,100574.03
2023-08-22T16:17:15.216Z,100571.75
2023-08-22T16:19:42.017Z,100563.46
2023-08-22T16:22:08.798Z,100556.41
2023-08-22T16:24:35.744Z,100556.96
2023-08-22T16:27:02.590Z,100558.95
2023-08-22T16:29:29.525Z,100559.02
2023-08-22T16:31:57.293Z,100568.73
2023-08-22T16:34:24.149Z,100580.70
2023-08-22T16:36:50.979Z,100578.41
2023-08-22T16:39:18.737Z,100573.23
2023-08-22T16:41:46.495Z,100571.98
2023-08-22T16:44:13.542Z,100568.78
2023-08-22T16:46:40.737Z,100572.23
2023-08-22T16:49:10.607Z,100581.79
2023-08-22T16:51:37.758Z,100586.08
2023-08-22T16:54:08.215Z,100582.23
2023-08-22T16:56:37.786Z,100579.73
2023-08-22T16:59:09.329Z,100579.96
2023-08-22T17:01:37.136Z,100588.60
2023-08-22T17:04:04.191Z,100593.17
2023-08-22T17:06:31.099Z,100604.01
2023-08-22T17:08:59.269Z,100612.69
2023-08-22T17:11:26.100Z,100627.27
2023-08-22T17:13:53.057Z,100636.36
2023-08-22T17:16:19.910Z,100644.67
2023-08-22T17:18:47.043Z,100653.84
2023-08-22T17:21:15.721Z,100655.91
2023-08-22T17:23:44.197Z,100668.80
2023-08-22T17:26:12.677Z,100673.64
2023-08-22T17:28:40.560Z,100676.57
2023-08-22T17:31:08.501Z,100678.35
2023-08-22T17:33:39.036Z,100674.84
2023-08-22T17:36:08.585Z,100665.11
2023-08-22T17:38:36.313Z,100661.84
2023-08-22T17:41:05.032Z,100658.60
2023-08-22T17:43:33.539Z,100660.57
2023-08-22T17:46:00.483Z,100661.01
2023-08-22T17:48:27.868Z,100654.88
2023-08-22T17:50:55.744Z,100659.62
2023-08-22T17:53:22.993Z,100672.33
2023-08-22T17:55:53.863Z,100689.98
2023-08-22T17:58:21.302Z,100704.40
2023-08-22T18:00:49.551Z,100710.10
2023-08-22T18:03:16.755Z,100714.48
2023-08-22T18:05:57.479Z,100719.30
2023-08-22T18:08:25.027Z,100725.30
2023-08-22T18:10:52.898Z,100727.19
2023-08-22T18:13:20.250Z,100729.41
2023-08-22T18:18:32.046Z,100735.15
2023-08-22T18:21:03.267Z,100733.91
2023-08-22T18:23:31.262Z,100735.02
2023-08-22T18:26:02.330Z,100729.98
2023-08-22T18:28:32.086Z,100731.02
2023-08-22T18:31:02.638Z,100736.63
2023-08-22T18:33:29.602Z,100749.05
2023-08-22T18:35:56.549Z,100746.90
2023-08-22T18:38:23.904Z,100750.95
2023-08-22T18:40:54.218Z,100757.58
2023-08-22T18:43:21.777Z,100755.42
2023-08-22T18:45:49.167Z,100762.55
2023-08-22T18:48:16.531Z,100766.39
2023-08-22T18:50:43.521Z,100769.17
2023-08-22T18:53:10.566Z,100776.35
2023-08-22T18:55:37.508Z,100777.62
2023-08-22T18:58:04.468Z,100772.46
2023-08-22T19:00:31.444Z,100772.09
2023-08-22T19:02:58.674Z,100759.65
2023-08-22T19:05:25.910Z,100761.00
2023-08-22T19:07:53.010Z,100765.87
2023-08-22T19:10:20.248Z,100768.58
2023-08-22T19:12:47.116Z,100773.90
2023-08-22T19:15:13.981Z,100775.75
2023-08-22T19:17:40.850Z,100785.53
2023-08-22T19:20:08.578Z,100788.39
2023-08-22T19:22:35.552Z,100790.25
2023-08-22T19:25:02.780Z,100791.58
2023-08-22T19:27:29.648Z,100792.73
2023-08-22T19:29:56.564Z,100789.84
2023-08-22T19:32:36.697Z,100786.17
2023-08-22T19:35:10.721Z,100792.94
2023-08-22T19:37:37.568Z,100794.52
2023-08-22T19:40:05.028Z,100791.60
2023-08-22T19:42:31.958Z,100790.80
2023-08-22T19:45:02.006Z,100801.13
2023-08-22T19:47:29.256Z,100811.28
2023-08-22T19:49:56.378Z,100812.05
2023-08-22T19:52:25.484Z,100809.42
2023-08-22T19:54:52.514Z,100810.63
2023-08-22T19:57:19.465Z,100801.52
2023-08-22T19:59:46.404Z,100801.70
2023-08-22T20:02:13.473Z,100800.39
2023-08-22T20:04:40.902Z,100802.94
2023-08-22T20:07:07.947Z,100806.09
2023-08-22T20:09:36.040Z,100801.77
2023-08-22T20:12:03.474Z,100793.02
2023-08-22T20:14:31.341Z,100792.36
2023-08-22T20:16:58.740Z,100792.38
2023-08-22T20:19:25.638Z,100790.75
2023-08-22T20:21:52.588Z,100793.87
2023-08-22T20:24:19.536Z,100802.86
2023-08-22T20:26:46.673Z,100806.64
2023-08-22T20:29:13.613Z,100806.09
2023-08-22T20:31:40.600Z,100814.06
2023-08-22T20:34:07.607Z,100814.95
2023-08-22T20:36:34.450Z,100813.06
2023-08-22T20:39:04.464Z,100816.96
2023-08-22T20:41:32.525Z,100818.78
2023-08-22T20:43:59.797Z,100810.74
2023-08-22T20:46:27.150Z,100809.86
2023-08-22T20:48:54.240Z,100811.35
2023-08-22T20:51:21.126Z,100808.58
2023-08-22T20:53:47.972Z,100811.83
2023-08-22T20:56:14.809Z,100815.28
2023-08-22T20:58:41.657Z,100813.34
2023-08-22T21:01:08.539Z,100813.60
2023-08-22T21:03:35.716Z,100806.20
2023-08-22T21:06:02.890Z,100806.33
2023-08-22T21:08:29.736Z,100818.11
2023-08-22T21:10:56.777Z,100821.80
2023-08-22T21:13:23.624Z,100822.92
2023-08-22T21:15:50.590Z,100821.55
2023-08-22T21:18:17.620Z,100826.35
2023-08-22T21:20:44.449Z,100838.55
2023-08-22T21:23:11.290Z,100831.05
2023-08-22T21:25:38.559Z,100837.01
2023-08-22T21:28:05.609Z,100847.73
2023-08-22T21:30:32.540Z,100849.74
2023-08-22T21:32:59.471Z,100844.17
2023-08-22T21:35:26.517Z,100833.49
2023-08-22T21:37:53.368Z,100836.56
2023-08-22T21:40:20.311Z,100845.70
2023-08-22T21:42:47.348Z,100847.48
2023-08-22T21:45:14.808Z,100842.98
2023-08-22T21:47:42.601Z,100844.36
2023-08-22T21:50:10.334Z,100846.91
2023-08-22T21:52:38.115Z,100845.80
2023-08-22T21:55:06.094Z,100849.36
2023-08-22T21:57:33.416Z,100851.65
2023-08-22T22:00:00.458Z,100852.83
2023-08-22T22:02:27.713Z,100847.43
2023-08-22T22:04:54.967Z,100846.64
2023-08-22T22:07:22.022Z,100845.53
2023-08-22T22:09:49.237Z,100844.68
2023-08-22T22:12:16.219Z,100846.13
2023-08-22T22:14:43.163Z,100841.98
2023-08-22T22:17:09.990Z,100842.17
2023-08-22T22:19:36.844Z,100846.13
2023-08-22T22:22:03.880Z,100852.50
2023-08-22T22:24:31.844Z,100854.90
2023-08-22T22:26:58.687Z,100858.41
2023-08-22T22:29:25.543Z,100859.08
2023-08-22T22:31:52.380Z,100856.90
2023-08-22T22:34:20.579Z,100857.36
2023-08-22T22:36:48.817Z,100851.11
2023-08-22T22:39:15.658Z,100846.40
2023-08-22T22:41:42.497Z,100846.71
2023-08-22T22:44:09.546Z,100852.91
2023-08-22T22:46:36.433Z,100855.56
2023-08-22T22:49:03.545Z,100848.44
2023-08-22T22:51:30.377Z,100840.73
2023-08-22T22:53:57.321Z,100839.77
2023-08-22T22:56:24.174Z,100843.06
2023-08-22T22:58:51.110Z,100840.94
2023-08-22T23:01:17.962Z,100835.58
2023-08-22T23:03:44.860Z,100838.00
2023-08-22T23:06:11.945Z,100841.41
2023-08-22T23:08:38.789Z,100842.56
2023-08-22T23:11:07.217Z,100840.65
2023-08-22T23:13:42.697Z,100837.41
2023-08-22T23:16:09.606Z,100836.92
2023-08-22T23:18:36.587Z,100838.70
2023-08-22T23:21:03.529Z,100845.18
2023-08-22T23:23:30.372Z,100847.14
2023-08-22T23:26:00.080Z,100844.98
2023-08-22T23:28:26.926Z,100843.59
2023-08-22T23:30:53.803Z,100845.51
2023-08-22T23:33:20.643Z,100841.71
2023-08-22T23:35:47.444Z,100839.90
2023-08-22T23:38:14.488Z,100844.29
2023-08-22T23:40:41.435Z,100854.60
2023-08-22T23:43:08.684Z,100854.77
2023-08-22T23:45:35.539Z,100858.95
2023-08-22T23:48:02.477Z,100854.66
2023-08-22T23:50:30.672Z,100846.58
2023-08-22T23:52:59.219Z,100838.96
2023-08-22T23:55:26.164Z,100836.09
2023-08-22T23:57:57.717Z,100836.34
